Time;durP1;ratioP1;P1;durP2;ratioP2;P2;SDS_P1;SDS_P2;PMS_P1;PMS_P2;Temp;Humidity;BMP_temperature;BMP_pressure;BME280_temperature;BME280_humidity;BME280_pressure;Samples;Min_cycle;Max_cycle;Signal;HPM_P1;HPM_P2
2023/12/05 00:00:21;;;;;;;;;;;7.90;99.90;;;;;;5075768;28;19916;-74
2023/12/05 00:02:46;;;;;;;;;;;7.80;99.90;;;;;;5075530;28;19913;-74
2023/12/05 00:05:12;;;;;;;;;;;7.80;99.90;;;;;;5074869;28;19915;-74
2023/12/05 00:07:38;;;;;;;;;;;7.80;99.90;;;;;;5075534;28;19912;-74
2023/12/05 00:10:04;;;;;;;;;;;7.80;99.90;;;;;;5073716;28;19916;-76
2023/12/05 00:12:29;;;;;;;;;;;7.80;99.90;;;;;;5075084;28;19958;-74
2023/12/05 00:14:55;;;;;;;;;;;7.90;99.90;;;;;;5075578;28;19915;-74
2023/12/05 00:17:20;;;;;;;;;;;8.10;99.90;;;;;;5073828;28;19909;-74
2023/12/05 00:19:46;;;;;;;;;;;8.10;99.90;;;;;;5075296;28;19913;-75
2023/12/05 00:22:11;;;;;;;;;;;8.10;99.90;;;;;;5075582;28;20331;-75
2023/12/05 00:24:37;;;;;;;;;;;8.20;99.90;;;;;;5083802;28;19914;-75
2023/12/05 00:27:03;;;;;;;;;;;8.20;99.90;;;;;;5087235;28;20284;-75
2023/12/05 00:29:28;;;;;;;;;;;8.20;99.90;;;;;;5077926;28;20011;-75
2023/12/05 00:31:54;;;;;;;;;;;8.10;99.90;;;;;;5075038;28;20041;-76
2023/12/05 00:34:19;;;;;;;;;;;8.00;99.90;;;;;;5074734;28;20388;-74
2023/12/05 00:36:44;;;;;;;;;;;7.90;99.90;;;;;;5074991;28;20291;-74
2023/12/05 00:39:10;;;;;;;;;;;7.80;99.90;;;;;;5074844;28;20003;-74
2023/12/05 00:41:36;;;;;;;;;;;7.60;99.90;;;;;;5074403;28;19919;-76
2023/12/05 00:44:01;;;;;;;;;;;7.60;99.90;;;;;;5075055;28;19919;-76
2023/12/05 00:46:27;;;;;;;;;;;7.60;99.90;;;;;;5074379;28;19958;-74
2023/12/05 00:48:53;;;;;;;;;;;7.50;99.90;;;;;;5069654;28;20482;-74
2023/12/05 00:51:18;;;;;;;;;;;7.40;99.90;;;;;;5054719;28;19952;-74
2023/12/05 00:53:44;;;;;;;;;;;7.40;99.90;;;;;;5054416;28;20326;-76
2023/12/05 00:56:14;;;;;;;;;;;7.40;99.90;;;;;;5063173;28;20149;-76
2023/12/05 00:58:40;;;;;;;;;;;7.40;99.90;;;;;;5074167;28;19908;-75
2023/12/05 01:01:05;;;;;;;;;;;7.60;99.90;;;;;;5072964;28;20363;-75
2023/12/05 01:03:31;;;;;;;;;;;7.60;99.90;;;;;;5071947;28;19909;-74
2023/12/05 01:05:56;;;;;;;;;;;7.90;99.90;;;;;;5073545;28;19964;-74
2023/12/05 01:08:22;;;;;;;;;;;8.10;99.90;;;;;;5073825;28;20007;-74
2023/12/05 01:10:47;;;;;;;;;;;8.10;99.90;;;;;;5073322;28;20042;-76
2023/12/05 01:13:13;;;;;;;;;;;7.90;99.90;;;;;;5074196;28;20302;-73
2023/12/05 01:15:38;;;;;;;;;;;7.70;99.90;;;;;;5072610;28;19955;-73
2023/12/05 01:18:04;;;;;;;;;;;7.60;99.90;;;;;;5073814;28;19913;-74
2023/12/05 01:20:30;;;;;;;;;;;7.50;99.90;;;;;;5073599;28;20371;-76
2023/12/05 01:22:55;;;;;;;;;;;7.40;99.90;;;;;;5077366;28;20282;-76
2023/12/05 01:25:21;;;;;;;;;;;7.30;99.90;;;;;;5083531;28;19920;-74
2023/12/05 01:27:47;;;;;;;;;;;7.30;99.90;;;;;;5085646;28;20381;-73
2023/12/05 01:30:13;;;;;;;;;;;7.30;99.90;;;;;;5073841;28;19909;-73
2023/12/05 01:32:38;;;;;;;;;;;7.30;99.90;;;;;;5073574;28;19912;-76
2023/12/05 01:35:04;;;;;;;;;;;7.40;99.90;;;;;;5073549;28;19909;-76
2023/12/05 01:37:29;;;;;;;;;;;7.40;99.90;;;;;;5072270;28;19966;-74
2023/12/05 01:39:55;;;;;;;;;;;7.40;99.90;;;;;;5073868;28;19995;-74
2023/12/05 01:42:20;;;;;;;;;;;7.50;99.90;;;;;;5073521;28;19912;-74
2023/12/05 01:44:46;;;;;;;;;;;7.40;99.90;;;;;;5073274;28;19978;-74
2023/12/05 01:47:12;;;;;;;;;;;7.30;99.90;;;;;;5073404;28;19909;-75
2023/12/05 01:49:40;;;;;;;;;;;7.30;99.90;;;;;;5073225;28;19908;-76
2023/12/05 01:52:05;;;;;;;;;;;7.30;99.90;;;;;;5073618;28;19912;-74
2023/12/05 01:54:31;;;;;;;;;;;7.30;99.90;;;;;;5072019;28;19916;-74
2023/12/05 01:56:58;;;;;;;;;;;7.40;99.90;;;;;;5072997;28;19912;-73
2023/12/05 01:59:24;;;;;;;;;;;7.50;99.90;;;;;;5073724;28;19912;-76
2023/12/05 02:01:50;;;;;;;;;;;7.50;99.90;;;;;;5073442;28;20366;-76
2023/12/05 02:04:16;;;;;;;;;;;7.50;99.90;;;;;;5073085;28;19908;-74
2023/12/05 02:06:41;;;;;;;;;;;7.50;99.90;;;;;;5073418;28;19909;-73
2023/12/05 02:09:09;;;;;;;;;;;7.40;99.90;;;;;;5071702;28;19916;-74
2023/12/05 02:11:35;;;;;;;;;;;7.40;99.90;;;;;;5073031;28;19976;-76
2023/12/05 02:14:01;;;;;;;;;;;7.50;99.90;;;;;;5073068;28;19955;-76
2023/12/05 02:16:31;;;;;;;;;;;7.50;99.90;;;;;;5073040;28;19956;-74
2023/12/05 02:19:02;;;;;;;;;;;7.50;99.90;;;;;;5073371;28;19912;-74
2023/12/05 02:21:30;;;;;;;;;;;7.50;99.90;;;;;;5073053;28;20345;-73
2023/12/05 02:23:59;;;;;;;;;;;7.50;99.90;;;;;;5081788;28;19962;-73
2023/12/05 02:26:33;;;;;;;;;;;7.40;99.90;;;;;;5078969;28;19912;-76
2023/12/05 02:28:58;;;;;;;;;;;7.30;99.90;;;;;;5081767;28;20363;-76
2023/12/05 02:31:24;;;;;;;;;;;7.30;99.90;;;;;;5089768;28;19923;-74
2023/12/05 02:33:50;;;;;;;;;;;7.30;99.90;;;;;;5077213;28;19942;-73
2023/12/05 02:36:33;;;;;;;;;;;7.30;99.90;;;;;;5075657;28;19909;-74
2023/12/05 02:39:07;;;;;;;;;;;7.30;99.90;;;;;;5076849;28;19916;-76
2023/12/05 02:41:36;;;;;;;;;;;7.30;99.90;;;;;;5077161;28;19909;-76
2023/12/05 02:44:06;;;;;;;;;;;7.40;99.90;;;;;;5076980;28;19908;-73
2023/12/05 02:46:31;;;;;;;;;;;7.30;99.90;;;;;;5075424;28;19912;-74
2023/12/05 02:48:58;;;;;;;;;;;7.40;99.90;;;;;;5076832;28;19997;-73
2023/12/05 02:51:23;;;;;;;;;;;7.40;99.90;;;;;;5076761;28;19923;-75
2023/12/05 02:53:49;;;;;;;;;;;7.40;99.90;;;;;;5076837;28;19913;-75
2023/12/05 02:56:14;;;;;;;;;;;7.40;99.90;;;;;;5076585;28;19909;-74
2023/12/05 02:58:40;;;;;;;;;;;7.30;99.90;;;;;;5076752;28;19908;-74
2023/12/05 03:01:06;;;;;;;;;;;7.30;99.90;;;;;;5076741;28;19909;-74
2023/12/05 03:03:31;;;;;;;;;;;7.30;99.90;;;;;;5075886;28;20329;-75
2023/12/05 03:05:57;;;;;;;;;;;7.30;99.90;;;;;;5076144;28;19908;-75
2023/12/05 03:08:22;;;;;;;;;;;7.40;99.90;;;;;;5074978;28;19912;-74
2023/12/05 03:10:48;;;;;;;;;;;7.50;99.90;;;;;;5074810;28;19924;-74
2023/12/05 03:13:13;;;;;;;;;;;7.60;99.90;;;;;;5076446;28;19908;-74
2023/12/05 03:15:39;;;;;;;;;;;7.60;99.90;;;;;;5076456;28;19913;-74
2023/12/05 03:18:04;;;;;;;;;;;7.60;99.90;;;;;;5076429;28;19908;-75
2023/12/05 03:20:30;;;;;;;;;;;7.60;99.90;;;;;;5076015;28;19908;-75
2023/12/05 03:22:55;;;;;;;;;;;7.60;99.90;;;;;;5079502;28;19908;-75
2023/12/05 03:25:21;;;;;;;;;;;7.60;99.90;;;;;;5084738;28;19912;-74
2023/12/05 03:27:46;;;;;;;;;;;7.60;99.90;;;;;;5087683;28;19923;-74
2023/12/05 03:30:12;;;;;;;;;;;7.70;99.90;;;;;;5075927;28;19908;-75
2023/12/05 03:32:37;;;;;;;;;;;7.60;99.90;;;;;;5076280;28;19919;-75
2023/12/05 03:35:03;;;;;;;;;;;7.50;99.90;;;;;;5075915;28;19954;-75
2023/12/05 03:37:29;;;;;;;;;;;7.40;99.90;;;;;;5075863;28;19908;-74
2023/12/05 03:39:54;;;;;;;;;;;7.30;99.90;;;;;;5075291;28;19913;-75
2023/12/05 03:42:20;;;;;;;;;;;7.20;99.90;;;;;;5075883;28;20359;-75
2023/12/05 03:44:45;;;;;;;;;;;7.20;99.90;;;;;;5076039;28;19943;-75
2023/12/05 03:47:11;;;;;;;;;;;7.20;99.90;;;;;;5075701;28;20267;-75
2023/12/05 03:49:37;;;;;;;;;;;7.20;99.90;;;;;;5075646;28;19912;-74
2023/12/05 03:52:02;;;;;;;;;;;7.20;99.90;;;;;;5075275;28;19916;-74
2023/12/05 03:54:28;;;;;;;;;;;7.20;99.90;;;;;;5075497;28;19919;-74
2023/12/05 03:56:53;;;;;;;;;;;7.10;99.90;;;;;;5074167;28;19916;-75
2023/12/05 03:59:19;;;;;;;;;;;7.00;99.90;;;;;;5075465;28;19916;-75
2023/12/05 04:01:44;;;;;;;;;;;7.00;99.90;;;;;;5075484;28;19997;-75
2023/12/05 04:04:10;;;;;;;;;;;6.90;99.90;;;;;;5074385;28;19919;-74
2023/12/05 04:06:35;;;;;;;;;;;6.80;99.90;;;;;;5075448;28;19915;-74
2023/12/05 04:09:01;;;;;;;;;;;6.80;99.90;;;;;;5075231;28;19908;-76
2023/12/05 04:11:30;;;;;;;;;;;6.80;99.90;;;;;;5074902;28;20294;-75
2023/12/05 04:13:56;;;;;;;;;;;6.80;99.90;;;;;;5075062;28;20439;-74
2023/12/05 04:16:21;;;;;;;;;;;6.80;99.90;;;;;;5075230;28;19908;-74
2023/12/05 04:18:47;;;;;;;;;;;6.80;99.90;;;;;;5075159;28;19908;-74
2023/12/05 04:21:12;;;;;;;;;;;6.80;99.90;;;;;;5075155;28;19908;-75
2023/12/05 04:23:39;;;;;;;;;;;6.90;99.90;;;;;;5081627;28;20011;-75
2023/12/05 04:26:06;;;;;;;;;;;7.00;99.90;;;;;;5083945;28;19934;-76
2023/12/05 04:28:32;;;;;;;;;;;7.00;99.90;;;;;;5092543;28;19908;-74
2023/12/05 04:30:57;;;;;;;;;;;7.00;99.90;;;;;;5094935;28;19916;-74
2023/12/05 04:33:23;;;;;;;;;;;6.90;99.90;;;;;;5095264;28;20279;-74
2023/12/05 04:35:48;;;;;;;;;;;6.90;99.90;;;;;;5094989;28;19915;-75
2023/12/05 04:38:14;;;;;;;;;;;7.00;99.90;;;;;;5094881;28;19915;-75
2023/12/05 04:40:40;;;;;;;;;;;7.20;99.90;;;;;;5095040;28;20322;-74
2023/12/05 04:43:05;;;;;;;;;;;7.30;99.90;;;;;;5095184;28;19909;-74
2023/12/05 04:45:31;;;;;;;;;;;7.40;99.90;;;;;;5094755;28;19915;-74
2023/12/05 04:47:57;;;;;;;;;;;7.30;99.90;;;;;;5094952;28;19912;-76
2023/12/05 04:50:22;;;;;;;;;;;7.20;99.90;;;;;;5077745;28;19978;-74
2023/12/05 04:52:48;;;;;;;;;;;7.30;99.90;;;;;;5074078;28;20417;-74
2023/12/05 04:55:13;;;;;;;;;;;7.20;99.90;;;;;;5074695;28;19959;-74
2023/12/05 04:57:39;;;;;;;;;;;7.20;99.90;;;;;;5074449;28;20003;-74
2023/12/05 05:00:05;;;;;;;;;;;7.20;99.90;;;;;;5074319;28;19912;-74
2023/12/05 05:02:30;;;;;;;;;;;7.30;99.90;;;;;;5074074;28;19915;-74
2023/12/05 05:04:56;;;;;;;;;;;7.20;99.90;;;;;;5074116;28;19913;-76
2023/12/05 05:07:21;;;;;;;;;;;7.20;99.90;;;;;;5074087;28;19909;-74
2023/12/05 05:09:47;;;;;;;;;;;7.20;99.90;;;;;;5074102;28;19908;-74
2023/12/05 05:12:14;;;;;;;;;;;7.20;99.90;;;;;;5073771;28;20019;-74
2023/12/05 05:14:39;;;;;;;;;;;7.20;99.90;;;;;;5074251;28;19908;-74
2023/12/05 05:17:07;;;;;;;;;;;7.20;99.90;;;;;;5074058;28;19961;-75
2023/12/05 05:19:33;;;;;;;;;;;7.10;99.90;;;;;;5073898;28;20007;-74
2023/12/05 05:21:58;;;;;;;;;;;7.20;99.90;;;;;;5074034;28;19951;-74
2023/12/05 05:24:24;;;;;;;;;;;7.20;99.90;;;;;;5088664;28;19912;-74
2023/12/05 05:26:49;;;;;;;;;;;7.10;99.90;;;;;;5081011;28;19912;-74
2023/12/05 05:29:15;;;;;;;;;;;7.20;99.90;;;;;;5078809;28;20414;-75
2023/12/05 05:31:40;;;;;;;;;;;7.20;99.90;;;;;;5075240;28;20015;-74
2023/12/05 05:34:06;;;;;;;;;;;7.20;99.90;;;;;;5080549;28;19908;-74
2023/12/05 05:36:31;;;;;;;;;;;7.40;99.90;;;;;;5094006;28;19931;-74
2023/12/05 05:38:57;;;;;;;;;;;7.50;99.90;;;;;;5093930;28;19912;-74
2023/12/05 05:41:22;;;;;;;;;;;7.60;99.90;;;;;;5094012;28;19908;-75
2023/12/05 05:43:48;;;;;;;;;;;7.60;99.90;;;;;;5093996;28;20451;-75
2023/12/05 05:46:13;;;;;;;;;;;7.60;99.90;;;;;;5093891;28;19909;-76
2023/12/05 05:48:39;;;;;;;;;;;7.50;99.90;;;;;;5091937;28;19960;-74
2023/12/05 05:51:05;;;;;;;;;;;7.50;99.90;;;;;;5078585;28;19919;-74
2023/12/05 05:53:30;;;;;;;;;;;7.40;99.90;;;;;;5075927;28;19959;-75
2023/12/05 05:55:58;;;;;;;;;;;7.30;99.90;;;;;;5073077;28;20313;-76
2023/12/05 05:58:23;;;;;;;;;;;7.30;99.90;;;;;;5070077;28;19915;-74
2023/12/05 06:00:49;;;;;;;;;;;7.30;99.90;;;;;;5073429;28;20294;-74
2023/12/05 06:03:14;;;;;;;;;;;7.20;99.90;;;;;;5072673;28;19909;-74
2023/12/05 06:05:40;;;;;;;;;;;7.20;99.90;;;;;;5073144;28;19916;-75
2023/12/05 06:08:05;;;;;;;;;;;7.20;99.90;;;;;;5073411;28;19909;-74
2023/12/05 06:10:31;;;;;;;;;;;7.10;99.90;;;;;;5078490;28;19924;-74
2023/12/05 06:12:58;;;;;;;;;;;7.10;99.90;;;;;;5072347;28;20223;-74
2023/12/05 06:15:24;;;;;;;;;;;7.10;99.90;;;;;;5073535;28;19919;-74
2023/12/05 06:17:49;;;;;;;;;;;7.10;99.90;;;;;;5073269;28;19908;-76
2023/12/05 06:20:15;;;;;;;;;;;7.10;99.90;;;;;;5073075;28;19912;-74
2023/12/05 06:22:41;;;;;;;;;;;7.10;99.90;;;;;;5075963;28;19920;-75
2023/12/05 06:25:06;;;;;;;;;;;7.20;99.90;;;;;;5081968;28;19917;-76
2023/12/05 06:27:32;;;;;;;;;;;7.20;99.90;;;;;;5082181;28;19922;-74
2023/12/05 06:29:57;;;;;;;;;;;7.30;99.90;;;;;;5082747;28;20006;-74
2023/12/05 06:32:23;;;;;;;;;;;7.30;99.90;;;;;;5067969;28;20287;-74
2023/12/05 06:34:49;;;;;;;;;;;7.30;99.90;;;;;;5058732;28;19958;-73
2023/12/05 06:37:14;;;;;;;;;;;7.40;99.90;;;;;;5063246;28;19916;-74
2023/12/05 06:39:40;;;;;;;;;;;7.40;99.90;;;;;;5071099;28;20000;-74
2023/12/05 06:42:05;;;;;;;;;;;7.40;99.90;;;;;;5071778;28;19916;-76
2023/12/05 06:44:31;;;;;;;;;;;7.40;99.90;;;;;;5089581;28;19913;-74
2023/12/05 06:46:56;;;;;;;;;;;7.40;99.90;;;;;;5082986;28;19920;-73
2023/12/05 06:49:22;;;;;;;;;;;7.50;99.90;;;;;;5071941;28;20050;-76
2023/12/05 06:51:55;;;;;;;;;;;7.50;99.90;;;;;;5072596;28;19938;-73
2023/12/05 06:54:21;;;;;;;;;;;7.50;99.90;;;;;;5071874;28;19908;-76
2023/12/05 06:56:47;;;;;;;;;;;7.50;99.90;;;;;;5071624;28;19916;-76
2023/12/05 06:59:13;;;;;;;;;;;7.40;99.90;;;;;;5071757;28;19912;-73
2023/12/05 07:01:39;;;;;;;;;;;7.30;99.90;;;;;;5072727;28;19912;-76
2023/12/05 07:04:05;;;;;;;;;;;7.30;99.90;;;;;;5080324;28;20026;-76
2023/12/05 07:06:31;;;;;;;;;;;7.00;99.90;;;;;;5073010;28;20338;-76
2023/12/05 07:08:56;;;;;;;;;;;6.90;99.90;;;;;;5071196;28;20387;-76
2023/12/05 07:11:24;;;;;;;;;;;6.80;99.90;;;;;;5071572;28;19920;-73
2023/12/05 07:13:50;;;;;;;;;;;6.80;99.90;;;;;;5076682;28;20023;-76
2023/12/05 07:16:16;;;;;;;;;;;6.70;99.90;;;;;;5095229;28;20353;-76
2023/12/05 07:18:41;;;;;;;;;;;6.80;99.90;;;;;;5086887;28;19962;-76
2023/12/05 07:21:08;;;;;;;;;;;6.90;99.90;;;;;;5075948;28;19920;-76
2023/12/05 07:23:33;;;;;;;;;;;7.00;99.90;;;;;;5078353;28;19942;-73
2023/12/05 07:25:59;;;;;;;;;;;7.10;99.90;;;;;;5076567;28;20378;-73
2023/12/05 07:28:24;;;;;;;;;;;7.10;99.90;;;;;;5089410;28;19965;-76
2023/12/05 07:30:50;;;;;;;;;;;7.10;99.90;;;;;;5081102;28;19939;-76
2023/12/05 07:33:15;;;;;;;;;;;7.20;99.90;;;;;;5069387;28;20519;-76
2023/12/05 07:35:42;;;;;;;;;;;7.20;99.90;;;;;;5083769;28;19916;-76
2023/12/05 07:38:07;;;;;;;;;;;7.20;99.90;;;;;;5081813;28;19916;-73
2023/12/05 07:40:33;;;;;;;;;;;7.20;99.90;;;;;;5072881;28;19962;-75
2023/12/05 07:42:58;;;;;;;;;;;7.20;99.90;;;;;;5076515;28;20365;-76
2023/12/05 07:45:24;;;;;;;;;;;7.20;99.90;;;;;;5072432;28;19920;-76
2023/12/05 07:47:49;;;;;;;;;;;7.30;99.90;;;;;;5082670;28;20007;-76
2023/12/05 07:50:15;;;;;;;;;;;7.40;99.90;;;;;;5077967;28;20378;-74
2023/12/05 07:52:41;;;;;;;;;;;7.40;99.90;;;;;;5071319;28;19925;-74
2023/12/05 07:55:07;;;;;;;;;;;7.50;99.90;;;;;;5073146;28;19928;-74
2023/12/05 07:57:32;;;;;;;;;;;7.50;99.90;;;;;;5073195;28;19916;-76
2023/12/05 07:59:59;;;;;;;;;;;7.60;99.90;;;;;;5072569;28;20342;-76
2023/12/05 08:02:25;;;;;;;;;;;7.60;99.90;;;;;;5072574;28;19912;-74
2023/12/05 08:04:50;;;;;;;;;;;7.70;99.90;;;;;;5071845;28;19908;-74
2023/12/05 08:07:17;;;;;;;;;;;7.70;99.90;;;;;;5076798;28;19917;-76
2023/12/05 08:09:42;;;;;;;;;;;7.70;99.90;;;;;;5070762;28;19909;-76
2023/12/05 08:12:08;;;;;;;;;;;7.70;99.90;;;;;;5081383;28;20021;-75
2023/12/05 08:14:33;;;;;;;;;;;7.80;99.90;;;;;;5087812;28;19916;-76
2023/12/05 08:16:59;;;;;;;;;;;7.80;99.90;;;;;;5074541;28;19923;-73
2023/12/05 08:19:25;;;;;;;;;;;7.80;99.90;;;;;;5072521;28;20011;-74
2023/12/05 08:21:51;;;;;;;;;;;7.80;99.90;;;;;;5071981;28;19924;-76
2023/12/05 08:24:17;;;;;;;;;;;7.70;99.90;;;;;;5078203;28;19916;-76
2023/12/05 08:26:43;;;;;;;;;;;7.70;99.90;;;;;;5070592;28;19919;-76
2023/12/05 08:29:08;;;;;;;;;;;7.70;99.90;;;;;;5079772;28;19924;-74
2023/12/05 08:31:34;;;;;;;;;;;7.80;99.90;;;;;;5073348;28;19924;-74
2023/12/05 08:33:59;;;;;;;;;;;7.80;99.90;;;;;;5071301;28;19921;-74
2023/12/05 08:36:25;;;;;;;;;;;7.80;99.90;;;;;;5074716;28;19923;-76
2023/12/05 08:38:50;;;;;;;;;;;7.80;99.90;;;;;;5071643;28;19912;-76
2023/12/05 08:41:18;;;;;;;;;;;7.90;99.90;;;;;;5072504;28;20403;-76
2023/12/05 08:43:44;;;;;;;;;;;8.10;99.90;;;;;;5071157;28;20379;-74
2023/12/05 08:46:12;;;;;;;;;;;8.20;99.90;;;;;;5075093;28;19970;-76
2023/12/05 08:48:37;;;;;;;;;;;8.40;99.90;;;;;;5082587;28;19939;-76
2023/12/05 08:51:03;;;;;;;;;;;8.50;99.90;;;;;;5078618;28;20368;-76
2023/12/05 08:53:28;;;;;;;;;;;8.40;99.90;;;;;;5071574;28;19913;-73
2023/12/05 08:55:54;;;;;;;;;;;8.50;99.90;;;;;;5108235;27;20401;-74
2023/12/05 08:58:19;;;;;;;;;;;8.60;99.90;;;;;;5071704;28;19916;-76
2023/12/05 09:00:45;;;;;;;;;;;8.70;99.90;;;;;;5071950;28;19916;-73
2023/12/05 09:03:10;;;;;;;;;;;8.70;99.90;;;;;;5070082;28;19955;-74
2023/12/05 09:05:36;;;;;;;;;;;8.60;99.90;;;;;;5071074;28;19920;-74
2023/12/05 09:08:02;;;;;;;;;;;8.50;99.90;;;;;;5078055;28;19912;-74
2023/12/05 09:10:27;;;;;;;;;;;8.40;99.90;;;;;;5071715;28;20064;-74
2023/12/05 09:12:53;;;;;;;;;;;8.40;99.90;;;;;;5070889;28;20405;-77
2023/12/05 09:15:19;;;;;;;;;;;8.50;99.90;;;;;;5071054;28;20271;-74
2023/12/05 09:17:44;;;;;;;;;;;8.80;99.90;;;;;;5069178;28;19913;-74
2023/12/05 09:20:09;;;;;;;;;;;9.00;99.90;;;;;;5071087;28;19923;-77
2023/12/05 09:22:35;;;;;;;;;;;8.80;99.90;;;;;;5072829;28;19956;-74
2023/12/05 09:25:01;;;;;;;;;;;8.80;99.90;;;;;;5077494;28;20044;-74
2023/12/05 09:27:27;;;;;;;;;;;8.80;99.90;;;;;;5071235;28;20374;-74
2023/12/05 09:29:52;;;;;;;;;;;8.90;99.90;;;;;;5076194;28;19961;-75
2023/12/05 09:32:18;;;;;;;;;;;8.90;99.90;;;;;;5074650;28;20314;-77
2023/12/05 09:34:44;;;;;;;;;;;8.90;99.90;;;;;;5070100;28;19923;-75
2023/12/05 09:37:09;;;;;;;;;;;8.90;99.90;;;;;;5070704;28;19920;-75
2023/12/05 09:39:36;;;;;;;;;;;9.00;99.90;;;;;;5073052;28;19917;-78
2023/12/05 09:42:05;;;;;;;;;;;9.00;99.90;;;;;;5065602;28;20295;-75
2023/12/05 09:44:31;;;;;;;;;;;9.10;99.90;;;;;;5071077;28;19934;-75
2023/12/05 09:46:57;;;;;;;;;;;9.20;99.90;;;;;;5071047;28;20613;-75
2023/12/05 09:49:27;;;;;;;;;;;9.30;99.90;;;;;;5071104;28;20007;-75
2023/12/05 09:51:53;;;;;;;;;;;9.40;99.90;;;;;;5065122;28;19921;-78
2023/12/05 09:54:19;;;;;;;;;;;9.50;99.90;;;;;;5072018;28;19939;-74
2023/12/05 09:56:44;;;;;;;;;;;9.70;99.90;;;;;;5083036;28;20367;-75
2023/12/05 09:59:10;;;;;;;;;;;10.00;99.90;;;;;;5079945;28;19916;-74
2023/12/05 10:01:36;;;;;;;;;;;10.30;99.90;;;;;;5076539;28;19912;-74
2023/12/05 10:04:02;;;;;;;;;;;10.50;99.90;;;;;;5070293;28;19919;-74
2023/12/05 10:06:27;;;;;;;;;;;10.60;99.90;;;;;;5068025;28;19920;-76
2023/12/05 10:08:54;;;;;;;;;;;10.40;99.90;;;;;;5070907;28;20003;-74
2023/12/05 10:11:24;;;;;;;;;;;10.40;99.90;;;;;;5089354;28;20425;-74
2023/12/05 10:13:49;;;;;;;;;;;10.20;99.90;;;;;;5070944;28;19947;-74
2023/12/05 10:16:16;;;;;;;;;;;10.20;99.90;;;;;;5071094;28;19912;-76
2023/12/05 10:18:42;;;;;;;;;;;10.10;99.90;;;;;;5090520;28;19922;-76
2023/12/05 10:21:07;;;;;;;;;;;9.90;99.90;;;;;;5088508;28;20019;-74
2023/12/05 10:23:33;;;;;;;;;;;9.80;99.90;;;;;;5074776;28;20330;-74
2023/12/05 10:25:58;;;;;;;;;;;9.40;99.90;;;;;;5077305;28;19917;-74
2023/12/05 10:28:24;;;;;;;;;;;9.10;99.90;;;;;;5079558;28;19919;-74
2023/12/05 10:30:49;;;;;;;;;;;8.90;99.90;;;;;;5069179;28;19966;-76
2023/12/05 10:33:21;;;;;;;;;;;8.90;99.90;;;;;;5068325;28;19928;-75
2023/12/05 10:35:47;;;;;;;;;;;9.10;99.90;;;;;;5079785;28;19916;-76
2023/12/05 10:38:14;;;;;;;;;;;9.40;99.90;;;;;;5070396;28;19916;-74
2023/12/05 10:40:55;;;;;;;;;;;9.60;99.90;;;;;;5071454;28;20296;-73
2023/12/05 10:43:21;;;;;;;;;;;9.70;99.90;;;;;;5074928;28;20255;-74
2023/12/05 10:45:47;;;;;;;;;;;9.60;99.90;;;;;;5078948;28;19942;-76
2023/12/05 10:48:16;;;;;;;;;;;9.80;99.90;;;;;;5072598;28;20347;-76
2023/12/05 10:50:45;;;;;;;;;;;9.90;99.90;;;;;;5073105;28;19916;-74
2023/12/05 10:53:10;;;;;;;;;;;10.10;99.90;;;;;;5074265;28;20024;-74
2023/12/05 10:55:36;;;;;;;;;;;10.20;99.90;;;;;;5076311;28;20349;-76
2023/12/05 10:58:02;;;;;;;;;;;10.30;99.90;;;;;;5091085;28;19923;-76
2023/12/05 11:00:28;;;;;;;;;;;10.50;99.90;;;;;;5082950;28;19967;-77
2023/12/05 11:02:54;;;;;;;;;;;10.60;99.90;;;;;;5084063;28;19958;-77
2023/12/05 11:05:20;;;;;;;;;;;10.70;99.90;;;;;;5078157;28;19999;-75
2023/12/05 11:07:46;;;;;;;;;;;11.00;99.90;;;;;;5083529;28;19924;-74
2023/12/05 11:10:12;;;;;;;;;;;11.30;99.90;;;;;;5080537;28;19970;-77
2023/12/05 11:12:39;;;;;;;;;;;11.30;99.90;;;;;;5075661;28;19972;-77
2023/12/05 11:15:06;;;;;;;;;;;11.60;99.90;;;;;;5085082;28;20248;-77
2023/12/05 11:17:37;;;;;;;;;;;11.30;99.90;;;;;;5074411;28;19951;-75
2023/12/05 11:20:05;;;;;;;;;;;11.10;99.90;;;;;;5079426;28;19995;-74
2023/12/05 11:22:31;;;;;;;;;;;11.20;99.90;;;;;;5074994;28;19959;-74
2023/12/05 11:25:07;;;;;;;;;;;11.20;99.90;;;;;;5080359;28;19964;-77
2023/12/05 11:27:51;;;;;;;;;;;11.40;99.90;;;;;;5076890;28;19922;-77
2023/12/05 11:30:24;;;;;;;;;;;11.50;99.90;;;;;;5073642;28;19964;-74
2023/12/05 11:33:08;;;;;;;;;;;11.50;99.90;;;;;;5072984;28;19962;-74
2023/12/05 11:35:39;;;;;;;;;;;11.50;99.90;;;;;;5068955;28;20406;-76
2023/12/05 11:38:08;;;;;;;;;;;11.70;99.90;;;;;;5071609;28;19924;-74
2023/12/05 11:40:33;;;;;;;;;;;11.60;99.90;;;;;;5073780;28;19920;-76
2023/12/05 11:43:08;;;;;;;;;;;11.70;99.90;;;;;;5070370;28;19916;-77
2023/12/05 11:45:37;;;;;;;;;;;11.90;99.90;;;;;;5082428;28;19925;-74
2023/12/05 11:48:03;;;;;;;;;;;12.10;99.90;;;;;;5072424;28;20314;-74
2023/12/05 11:50:39;;;;;;;;;;;12.10;99.90;;;;;;5105412;27;20011;-77
2023/12/05 11:53:06;;;;;;;;;;;12.10;99.90;;;;;;5072691;28;19923;-77
2023/12/05 11:55:32;;;;;;;;;;;12.40;99.90;;;;;;5074543;28;20315;-78
2023/12/05 11:57:57;;;;;;;;;;;12.40;99.90;;;;;;5074268;28;19920;-75
2023/12/05 12:00:26;;;;;;;;;;;12.30;99.90;;;;;;5084367;28;19919;-75
2023/12/05 12:02:56;;;;;;;;;;;12.00;99.90;;;;;;5071631;28;20306;-77
2023/12/05 12:05:22;;;;;;;;;;;11.50;99.90;;;;;;5075592;28;20409;-78
2023/12/05 12:07:50;;;;;;;;;;;11.40;99.90;;;;;;5081113;28;19920;-76
2023/12/05 12:10:18;;;;;;;;;;;11.40;99.90;;;;;;5081835;28;20042;-74
2023/12/05 12:12:47;;;;;;;;;;;11.60;99.90;;;;;;5077627;28;19924;-77
2023/12/05 12:15:16;;;;;;;;;;;11.50;99.90;;;;;;5082988;28;19916;-77
2023/12/05 12:17:45;;;;;;;;;;;11.60;99.90;;;;;;5074155;28;19912;-77
2023/12/05 12:20:13;;;;;;;;;;;11.50;99.90;;;;;;5082103;28;20349;-75
2023/12/05 12:22:40;;;;;;;;;;;11.30;99.90;;;;;;5071974;28;20752;-75
2023/12/05 12:25:09;;;;;;;;;;;11.20;99.90;;;;;;5083089;28;20383;-75
2023/12/05 12:27:35;;;;;;;;;;;11.30;99.90;;;;;;5076933;28;20390;-78
2023/12/05 12:30:00;;;;;;;;;;;11.90;99.90;;;;;;5068328;28;19917;-77
2023/12/05 12:32:26;;;;;;;;;;;12.60;99.90;;;;;;5075193;28;20011;-78
2023/12/05 12:34:51;;;;;;;;;;;12.90;99.90;;;;;;5077795;28;20306;-75
2023/12/05 12:37:17;;;;;;;;;;;12.90;99.90;;;;;;5080181;28;19916;-75
2023/12/05 12:39:43;;;;;;;;;;;12.70;99.90;;;;;;5078315;28;19909;-75
2023/12/05 12:42:10;;;;;;;;;;;12.20;99.90;;;;;;5077297;28;19913;-75
2023/12/05 12:44:36;;;;;;;;;;;11.70;99.90;;;;;;5079939;28;19913;-78
2023/12/05 12:47:02;;;;;;;;;;;11.20;99.90;;;;;;5082858;28;19919;-77
2023/12/05 12:49:28;;;;;;;;;;;10.90;99.90;;;;;;5091886;28;19923;-75
2023/12/05 12:51:54;;;;;;;;;;;10.70;99.90;;;;;;5071852;28;20011;-74
2023/12/05 12:54:20;;;;;;;;;;;10.50;99.90;;;;;;5071774;28;19920;-77
2023/12/05 12:56:45;;;;;;;;;;;10.70;99.90;;;;;;5072223;28;19970;-74
2023/12/05 12:59:11;;;;;;;;;;;11.10;99.90;;;;;;5071454;28;20383;-78
2023/12/05 13:01:38;;;;;;;;;;;11.50;99.90;;;;;;5073500;28;19927;-75
2023/12/05 13:04:06;;;;;;;;;;;11.70;99.90;;;;;;5072656;28;20268;-75
2023/12/05 13:06:39;;;;;;;;;;;11.90;99.90;;;;;;5080687;28;19955;-78
2023/12/05 13:09:17;;;;;;;;;;;11.90;99.90;;;;;;5071599;28;19920;-75
2023/12/05 13:11:44;;;;;;;;;;;12.10;99.90;;;;;;5070869;28;20363;-78
2023/12/05 13:14:11;;;;;;;;;;;12.40;99.90;;;;;;5071489;28;19964;-78
2023/12/05 13:16:38;;;;;;;;;;;12.60;99.90;;;;;;5074201;28;19920;-75
2023/12/05 13:19:03;;;;;;;;;;;12.70;99.90;;;;;;5071397;28;19996;-75
2023/12/05 13:21:32;;;;;;;;;;;13.30;99.90;;;;;;5079809;28;19916;-75
2023/12/05 13:23:58;;;;;;;;;;;14.00;99.90;;;;;;5080270;28;20646;-76
2023/12/05 13:26:24;;;;;;;;;;;13.90;99.90;;;;;;5081738;28;19912;-76
2023/12/05 13:28:50;;;;;;;;;;;13.90;99.90;;;;;;5074189;28;19924;-75
2023/12/05 13:31:16;;;;;;;;;;;13.60;99.90;;;;;;5078701;28;19947;-76
2023/12/05 13:33:42;;;;;;;;;;;13.00;99.90;;;;;;5075532;28;20361;-77
2023/12/05 13:36:08;;;;;;;;;;;12.30;99.90;;;;;;5080126;28;19921;-75
2023/12/05 13:38:33;;;;;;;;;;;11.80;99.90;;;;;;5068821;28;20014;-76
2023/12/05 13:40:59;;;;;;;;;;;11.40;99.90;;;;;;5080852;28;19919;-76
2023/12/05 13:43:24;;;;;;;;;;;11.20;99.90;;;;;;5069471;28;19912;-75
2023/12/05 13:45:50;;;;;;;;;;;11.30;99.90;;;;;;5073700;28;19921;-74
2023/12/05 13:48:16;;;;;;;;;;;11.80;99.90;;;;;;5070397;28;19919;-78
2023/12/05 13:50:41;;;;;;;;;;;11.90;99.90;;;;;;5070663;28;19967;-78
2023/12/05 13:53:06;;;;;;;;;;;12.40;99.90;;;;;;5070572;28;19921;-78
2023/12/05 13:55:32;;;;;;;;;;;12.60;99.90;;;;;;5070084;28;19970;-75
2023/12/05 13:57:58;;;;;;;;;;;12.80;99.90;;;;;;5069562;28;20379;-75
2023/12/05 14:00:23;;;;;;;;;;;12.80;99.90;;;;;;5075403;28;19947;-77
2023/12/05 14:02:49;;;;;;;;;;;12.60;99.90;;;;;;5075179;28;19916;-80
2023/12/05 14:05:15;;;;;;;;;;;12.30;99.90;;;;;;5070211;28;19908;-79
2023/12/05 14:07:40;;;;;;;;;;;12.20;99.90;;;;;;5077772;28;19920;-75
2023/12/05 14:10:06;;;;;;;;;;;12.10;99.90;;;;;;5072876;28;19924;-75
2023/12/05 14:12:32;;;;;;;;;;;12.00;99.90;;;;;;5081615;28;19924;-74
2023/12/05 14:14:57;;;;;;;;;;;11.90;99.90;;;;;;5089820;28;20019;-78
2023/12/05 14:17:23;;;;;;;;;;;11.90;99.90;;;;;;5084665;28;19912;-77
2023/12/05 14:19:48;;;;;;;;;;;11.90;99.90;;;;;;5067441;28;19924;-74